Time;durP1;ratioP1;P1;durP2;ratioP2;P2;SDS_P1;SDS_P2;PMS_P1;PMS_P2;Temp;Humidity;BMP_temperature;BMP_pressure;BME280_temperature;BME280_humidity;BME280_pressure;Samples;Min_cycle;Max_cycle;Signal;HPM_P1;HPM_P2
2021/12/09 00:01:32;;;;;;;23.73;16.97;;;-7.50;99.90;-9.00;99872;;;;563931;250;24105;-79
2021/12/09 00:03:58;;;;;;;23.47;15.93;;;-7.50;99.90;-9.00;99884;;;;563869;249;24156;-77
2021/12/09 00:06:28;;;;;;;24.73;16.03;;;-7.50;99.90;-9.00;99883;;;;567294;250;24092;-76
2021/12/09 00:08:54;;;;;;;21.90;15.00;;;-7.60;99.90;-9.10;99880;;;;574780;250;24091;-77
2021/12/09 00:11:22;;;;;;;22.10;15.80;;;-7.60;99.90;-9.10;99873;;;;565567;250;24113;-76
2021/12/09 00:13:53;;;;;;;24.43;16.70;;;-7.60;99.90;-9.10;99875;;;;566256;250;24110;-77
2021/12/09 00:16:18;;;;;;;23.93;15.57;;;-7.60;99.90;-9.20;99879;;;;565835;250;24098;-77
2021/12/09 00:18:46;;;;;;;23.83;16.03;;;-7.70;99.90;-9.20;99873;;;;565656;250;24093;-76
2021/12/09 00:21:14;;;;;;;28.80;16.10;;;-7.70;99.90;-9.10;99874;;;;565802;250;24094;-76
2021/12/09 00:23:42;;;;;;;26.40;17.27;;;-7.70;99.90;-9.10;99875;;;;562873;250;24100;-77
2021/12/09 00:26:09;;;;;;;25.97;17.00;;;-7.70;99.90;-9.10;99874;;;;565880;250;24133;-75
2021/12/09 00:28:37;;;;;;;25.50;16.53;;;-7.60;99.90;-9.10;99875;;;;566218;250;24070;-77
2021/12/09 00:31:05;;;;;;;26.40;16.77;;;-7.60;99.90;-9.00;99864;;;;566201;250;24067;-75
2021/12/09 00:33:40;;;;;;;28.97;18.40;;;-7.60;99.90;-9.00;99871;;;;566277;250;24074;-77
2021/12/09 00:36:01;;;;;;;25.10;17.10;;;-7.50;99.90;-9.00;99875;;;;565719;250;24105;-77
2021/12/09 00:38:41;;;;;;;25.20;16.43;;;-7.50;99.90;-8.90;99873;;;;565999;250;25124;-77
2021/12/09 00:41:03;;;;;;;26.17;17.40;;;-7.50;99.90;-8.90;99864;;;;565622;250;25162;-77
2021/12/09 00:43:32;;;;;;;26.40;17.40;;;-7.40;99.90;-8.90;99867;;;;565739;250;24107;-78
2021/12/09 00:45:59;;;;;;;25.87;16.80;;;-7.40;99.90;-8.80;99858;;;;565991;250;24111;-78
2021/12/09 00:48:30;;;;;;;28.00;16.20;;;-7.40;99.90;-8.80;99856;;;;565961;250;25109;-79
2021/12/09 00:50:59;;;;;;;26.47;16.40;;;-7.30;99.90;-8.80;99849;;;;565951;250;25168;-77
2021/12/09 00:53:23;;;;;;;27.37;17.57;;;-7.30;99.90;-8.70;99852;;;;565525;250;24113;-79
2021/12/09 00:55:55;;;;;;;28.13;17.30;;;-7.30;99.90;-8.70;99849;;;;565857;250;24152;-79
2021/12/09 00:58:19;;;;;;;24.67;16.07;;;-7.30;99.90;-8.70;99859;;;;565649;250;24097;-75
2021/12/09 01:00:50;;;;;;;25.00;15.67;;;-7.30;99.90;-8.70;99841;;;;574319;250;24095;-75
2021/12/09 01:03:15;;;;;;;26.17;16.10;;;-7.20;99.90;-8.60;99845;;;;564896;250;24113;-78
2021/12/09 01:05:46;;;;;;;26.53;16.57;;;-7.20;99.90;-8.60;99846;;;;565682;250;24140;-75
2021/12/09 01:08:11;;;;;;;26.23;16.27;;;-7.20;99.90;-8.60;99847;;;;565080;250;24137;-76
2021/12/09 01:10:39;;;;;;;25.30;15.87;;;-7.20;99.90;-8.60;99841;;;;565657;249;24086;-78
2021/12/09 01:13:07;;;;;;;25.30;15.77;;;-7.20;99.90;-8.60;99843;;;;566847;250;24127;-78
2021/12/09 01:15:38;;;;;;;26.97;16.73;;;-7.20;99.90;-8.60;99837;;;;563604;250;24111;-77
2021/12/09 01:18:02;;;;;;;27.23;16.23;;;-7.20;99.90;-8.60;99832;;;;574280;250;24110;-78
2021/12/09 01:20:33;;;;;;;23.93;15.27;;;-7.20;99.90;-8.60;99836;;;;565187;252;24161;-77
2021/12/09 01:23:02;;;;;;;25.70;15.17;;;-7.20;99.90;-8.60;99836;;;;565652;248;24109;-77
2021/12/09 01:25:31;;;;;;;25.10;16.47;;;-7.20;99.90;-8.60;99827;;;;565714;253;24195;-75
2021/12/09 01:27:59;;;;;;;29.30;18.00;;;-7.20;99.90;-8.60;99827;;;;564784;250;24144;-79
2021/12/09 01:30:25;;;;;;;29.47;17.33;;;-7.10;99.90;-8.60;99833;;;;566180;250;24122;-79
2021/12/09 01:32:57;;;;;;;26.17;16.20;;;-7.20;99.90;-8.60;99819;;;;566146;250;24112;-79
2021/12/09 01:35:27;;;;;;;28.07;16.87;;;-7.10;99.90;-8.60;99827;;;;571164;250;24118;-80
2021/12/09 01:37:57;;;;;;;25.63;16.60;;;-7.10;99.90;-8.60;99839;;;;574429;247;24143;-80
2021/12/09 01:40:23;;;;;;;25.93;16.13;;;-7.10;99.90;-8.60;99829;;;;566244;250;24122;-77
2021/12/09 01:42:55;;;;;;;25.67;15.90;;;-7.10;99.90;-8.60;99819;;;;563078;251;24140;-80
2021/12/09 01:45:20;;;;;;;24.33;15.83;;;-7.20;99.90;-8.60;99817;;;;554501;253;24139;-76
2021/12/09 01:47:48;;;;;;;28.50;16.17;;;-7.10;99.90;-8.60;99813;;;;576392;249;24057;-77
2021/12/09 01:50:16;;;;;;;25.07;16.07;;;-7.10;99.90;-8.60;99805;;;;574523;250;24124;-79
2021/12/09 01:52:44;;;;;;;24.77;15.30;;;-7.10;99.90;-8.60;99796;;;;562775;251;25189;-79
2021/12/09 01:55:11;;;;;;;22.27;13.93;;;-7.20;99.90;-8.60;99796;;;;562714;251;24154;-77
2021/12/09 01:57:39;;;;;;;23.93;14.63;;;-7.10;99.90;-8.50;99801;;;;562770;251;24176;-76
2021/12/09 02:00:07;;;;;;;26.13;16.13;;;-7.10;99.90;-8.50;99802;;;;571186;242;24081;-77
2021/12/09 02:02:35;;;;;;;23.27;14.33;;;-7.10;99.90;-8.50;99795;;;;592090;242;24074;-77
2021/12/09 02:05:03;;;;;;;22.47;13.83;;;-7.10;99.90;-8.50;99796;;;;575716;246;24060;-76
2021/12/09 02:07:34;;;;;;;22.67;14.97;;;-7.10;99.90;-8.50;99796;;;;575531;246;24070;-78
2021/12/09 02:09:59;;;;;;;22.30;14.57;;;-7.10;99.90;-8.50;99795;;;;575130;246;24051;-76
2021/12/09 02:12:27;;;;;;;23.80;14.77;;;-7.10;99.90;-8.50;99787;;;;575421;246;24039;-77
2021/12/09 02:14:59;;;;;;;22.37;14.20;;;-7.10;99.90;-8.60;99787;;;;575298;246;24055;-75
2021/12/09 02:17:23;;;;;;;20.27;13.00;;;-7.10;99.90;-8.50;99780;;;;572341;247;24159;-76
2021/12/09 02:19:52;;;;;;;20.60;14.03;;;-7.10;99.90;-8.50;99782;;;;572458;247;24071;-76
2021/12/09 02:22:19;;;;;;;21.83;14.20;;;-7.10;99.90;-8.50;99774;;;;572958;246;24081;-76
2021/12/09 02:24:47;;;;;;;19.80;12.73;;;-7.10;99.90;-8.50;99792;;;;593591;241;24041;-76
2021/12/09 02:27:14;;;;;;;22.47;13.40;;;-7.00;99.90;-8.50;99784;;;;584054;242;24051;-77
2021/12/09 02:29:43;;;;;;;19.17;13.50;;;-7.00;99.90;-8.40;99779;;;;576267;245;24196;-79
2021/12/09 02:32:12;;;;;;;20.27;13.57;;;-7.00;99.90;-8.40;99780;;;;576340;245;24057;-78
2021/12/09 02:34:40;;;;;;;21.37;13.80;;;-6.90;99.90;-8.30;99777;;;;576298;245;24044;-79
2021/12/09 02:37:11;;;;;;;21.70;13.13;;;-6.90;99.90;-8.30;99776;;;;576236;245;24076;-75
2021/12/09 02:39:36;;;;;;;20.43;13.00;;;-6.90;99.90;-8.20;99769;;;;576167;245;24057;-75
2021/12/09 02:42:05;;;;;;;16.60;12.07;;;-6.70;99.90;-8.10;99767;;;;575963;246;24076;-77
2021/12/09 02:44:33;;;;;;;16.63;11.80;;;-6.70;99.90;-8.10;99767;;;;571040;246;24102;-77
2021/12/09 02:47:04;;;;;;;18.63;12.23;;;-6.60;99.90;-8.00;99756;;;;575896;246;24076;-76
2021/12/09 02:49:32;;;;;;;17.70;12.27;;;-6.60;99.90;-7.90;99749;;;;584453;245;24111;-75
2021/12/09 02:51:59;;;;;;;20.43;13.30;;;-6.40;99.90;-7.80;99755;;;;584708;245;24062;-76
2021/12/09 02:54:28;;;;;;;20.87;13.13;;;-6.40;99.90;-7.70;99759;;;;575648;246;25089;-76
2021/12/09 02:56:56;;;;;;;23.07;13.17;;;-6.20;99.90;-7.50;99768;;;;570769;246;24129;-76
2021/12/09 02:59:20;;;;;;;22.90;12.57;;;-6.10;99.90;-7.50;99768;;;;576673;245;24071;-75
2021/12/09 03:01:59;;;;;;;19.57;11.97;;;-6.10;99.90;-7.30;99757;;;;583756;242;24066;-75
2021/12/09 03:04:16;;;;;;;20.53;12.00;;;-5.90;99.90;-7.30;99762;;;;579908;247;24116;-75
2021/12/09 03:06:44;;;;;;;20.27;13.43;;;-5.90;99.90;-7.30;99758;;;;576553;246;24051;-75
2021/12/09 03:09:15;;;;;;;18.93;11.40;;;-5.90;99.90;-7.20;99764;;;;575292;246;24114;-75
2021/12/09 03:11:47;;;;;;;19.97;11.97;;;-5.80;99.90;-7.20;99753;;;;575366;246;24109;-76
2021/12/09 03:14:14;;;;;;;21.33;12.77;;;-5.70;99.90;-7.10;99754;;;;582505;242;24079;-75
2021/12/09 03:16:43;;;;;;;17.60;10.93;;;-5.70;99.90;-7.10;99755;;;;582808;242;24083;-76
2021/12/09 03:19:07;;;;;;;18.50;11.13;;;-5.70;99.90;-7.00;99749;;;;583993;246;24058;-76
2021/12/09 03:21:38;;;;;;;18.83;11.30;;;-5.60;99.90;-7.00;99764;;;;584102;246;24080;-77
2021/12/09 03:24:06;;;;;;;17.77;11.17;;;-5.60;99.90;-7.00;99757;;;;575407;246;24094;-79
2021/12/09 03:26:40;;;;;;;15.47;10.87;;;-5.50;99.90;-6.90;99757;;;;570203;246;24084;-76
2021/12/09 03:29:13;;;;;;;17.37;10.73;;;-5.40;99.90;-6.80;99745;;;;575236;246;24067;-79
2021/12/09 03:31:37;;;;;;;15.77;10.53;;;-5.40;99.90;-6.70;99737;;;;569882;246;24091;-76
2021/12/09 03:34:06;;;;;;;19.27;10.27;;;-5.20;99.90;-6.60;99750;;;;576327;245;24067;-79
2021/12/09 03:36:35;;;;;;;14.27;9.50;;;-5.20;99.90;-6.60;99742;;;;576939;245;24107;-78
2021/12/09 03:39:03;;;;;;;13.73;10.00;;;-5.20;99.90;-6.60;99749;;;;572099;245;24080;-76
2021/12/09 03:41:31;;;;;;;21.20;11.10;;;-5.20;99.90;-6.50;99766;;;;571545;245;24088;-78
2021/12/09 03:43:59;;;;;;;14.47;9.97;;;-5.10;99.90;-6.50;99761;;;;576340;245;24112;-78
2021/12/09 03:46:27;;;;;;;15.43;9.60;;;-5.10;99.90;-6.50;99757;;;;576231;245;24079;-79
2021/12/09 03:48:55;;;;;;;14.87;9.20;;;-5.10;99.90;-6.50;99751;;;;576274;245;24101;-80
2021/12/09 03:51:23;;;;;;;14.00;9.63;;;-5.10;99.90;-6.50;99756;;;;576291;245;24122;-80
2021/12/09 03:53:54;;;;;;;17.03;10.47;;;-5.10;99.90;-6.40;99747;;;;575910;245;24073;-80
2021/12/09 03:56:19;;;;;;;15.23;10.07;;;-5.10;99.90;-6.50;99736;;;;584399;246;25115;-79
2021/12/09 03:58:50;;;;;;;12.23;9.20;;;-5.10;99.90;-6.50;99738;;;;575981;246;24069;-77
2021/12/09 04:01:15;;;;;;;14.37;9.83;;;-5.10;99.90;-6.50;99743;;;;571313;246;24069;-76
2021/12/09 04:03:43;;;;;;;14.07;9.33;;;-5.10;99.90;-6.50;99752;;;;576965;246;24067;-76
2021/12/09 04:06:11;;;;;;;15.13;10.17;;;-5.20;99.90;-6.60;99749;;;;576878;246;24078;-75
2021/12/09 04:08:39;;;;;;;14.90;9.73;;;-5.20;99.90;-6.70;99754;;;;570450;249;24072;-79
2021/12/09 04:11:10;;;;;;;13.90;9.10;;;-5.20;99.90;-6.70;99756;;;;559469;253;24076;-75
2021/12/09 04:13:36;;;;;;;12.00;8.50;;;-5.40;99.90;-6.80;99760;;;;567453;252;24119;-75
2021/12/09 04:16:05;;;;;;;14.47;9.50;;;-5.50;99.90;-6.90;99757;;;;559573;253;24084;-77
2021/12/09 04:18:32;;;;;;;15.13;9.10;;;-5.50;99.90;-7.00;99758;;;;567644;253;24115;-77
2021/12/09 04:21:01;;;;;;;14.57;8.77;;;-5.60;99.90;-7.10;99748;;;;570074;248;24082;-76
2021/12/09 04:23:31;;;;;;;15.47;9.77;;;-5.70;99.90;-7.20;99736;;;;569915;248;24124;-76
2021/12/09 04:25:57;;;;;;;21.17;10.10;;;-5.90;99.90;-7.30;99746;;;;575818;248;24079;-76
2021/12/09 04:28:26;;;;;;;17.00;9.17;;;-5.90;99.90;-7.30;99735;;;;578562;248;24178;-77
2021/12/09 04:30:57;;;;;;;14.17;9.47;;;-5.90;99.90;-7.30;99743;;;;569858;248;24102;-78
2021/12/09 04:33:21;;;;;;;15.47;10.30;;;-5.90;99.90;-7.30;99738;;;;565587;248;24104;-76
2021/12/09 04:35:49;;;;;;;15.17;9.30;;;-5.90;99.90;-7.30;99732;;;;568838;248;24114;-76
2021/12/09 04:38:17;;;;;;;16.00;10.03;;;-5.90;99.90;-7.30;99743;;;;570384;248;24163;-79
2021/12/09 04:40:45;;;;;;;17.33;10.73;;;-5.90;99.90;-7.20;99741;;;;570437;248;24149;-76
2021/12/09 04:43:13;;;;;;;14.30;9.37;;;-5.80;99.90;-7.10;99735;;;;570386;248;24089;-76
2021/12/09 04:45:41;;;;;;;15.23;10.23;;;-5.70;99.90;-7.00;99739;;;;570908;247;25191;-75
2021/12/09 04:48:10;;;;;;;14.63;9.67;;;-5.50;99.90;-6.90;99728;;;;571215;247;24084;-76
2021/12/09 04:50:42;;;;;;;14.23;9.67;;;-5.40;99.90;-6.80;99727;;;;571284;247;24085;-76
2021/12/09 04:53:07;;;;;;;15.23;9.27;;;-5.30;99.90;-6.70;99726;;;;570991;247;24132;-77
2021/12/09 04:55:35;;;;;;;13.90;9.63;;;-5.30;99.90;-6.60;99731;;;;571036;248;24109;-75
2021/12/09 04:58:06;;;;;;;16.53;9.23;;;-5.20;99.90;-6.50;99745;;;;570946;248;24077;-77
2021/12/09 05:00:32;;;;;;;15.67;9.57;;;-5.10;99.90;-6.50;99737;;;;570499;248;24136;-75
2021/12/09 05:03:08;;;;;;;11.93;8.77;;;-5.10;99.90;-6.50;99748;;;;570974;248;24120;-76
2021/12/09 05:05:37;;;;;;;16.47;9.80;;;-5.10;99.90;-6.50;99740;;;;570701;248;24144;-75
2021/12/09 05:08:05;;;;;;;15.43;10.07;;;-5.10;99.90;-6.50;99731;;;;569392;248;24100;-76
2021/12/09 05:10:34;;;;;;;15.57;9.63;;;-5.10;99.90;-6.50;99727;;;;567847;248;24175;-78
2021/12/09 05:12:58;;;;;;;13.37;9.17;;;-5.10;99.90;-6.50;99738;;;;570446;248;24090;-76
2021/12/09 05:15:26;;;;;;;13.77;9.40;;;-5.10;99.90;-6.50;99738;;;;570302;248;25121;-76
2021/12/09 05:17:53;;;;;;;18.67;10.70;;;-5.10;99.90;-6.40;99729;;;;569684;248;24106;-76
2021/12/09 05:20:22;;;;;;;20.30;9.73;;;-5.00;99.90;-6.40;99724;;;;569918;248;25283;-77
2021/12/09 05:22:53;;;;;;;13.77;9.67;;;-5.00;99.90;-6.40;99718;;;;569951;248;24092;-76
2021/12/09 05:25:17;;;;;;;16.37;9.00;;;-5.00;99.90;-6.30;99732;;;;569766;248;24097;-77
2021/12/09 05:27:45;;;;;;;16.53;10.13;;;-5.00;99.90;-6.30;99737;;;;569977;248;24107;-77
2021/12/09 05:30:13;;;;;;;18.83;10.70;;;-4.90;99.90;-6.30;99743;;;;570124;248;24089;-76
2021/12/09 05:32:42;;;;;;;17.73;11.23;;;-4.90;99.90;-6.30;99736;;;;569993;248;24086;-75
2021/12/09 05:35:09;;;;;;;20.90;12.30;;;-5.00;99.90;-6.40;99728;;;;570309;248;24110;-77
2021/12/09 05:37:37;;;;;;;25.47;15.50;;;-5.00;99.90;-6.40;99720;;;;570404;248;24108;-76
2021/12/09 05:40:05;;;;;;;24.40;14.97;;;-5.00;99.90;-6.30;99725;;;;570438;248;24085;-77
2021/12/09 05:42:33;;;;;;;24.90;13.77;;;-5.00;99.90;-6.30;99729;;;;570330;248;24087;-78
2021/12/09 05:45:01;;;;;;;22.67;13.80;;;-5.00;99.90;-6.30;99726;;;;570341;248;24192;-76
2021/12/09 05:47:29;;;;;;;22.27;11.97;;;-4.90;99.90;-6.30;99723;;;;570348;248;24087;-74
2021/12/09 05:49:57;;;;;;;18.93;12.43;;;-4.90;99.90;-6.20;99728;;;;578995;247;24110;-76
2021/12/09 05:52:25;;;;;;;19.23;11.83;;;-4.90;99.90;-6.20;99731;;;;570324;248;24082;-75
2021/12/09 05:54:55;;;;;;;18.50;11.23;;;-4.80;99.90;-6.20;99726;;;;570350;248;24085;-77
2021/12/09 05:57:20;;;;;;;23.47;11.60;;;-4.80;99.90;-6.20;99725;;;;579374;246;24328;-76
2021/12/09 05:59:48;;;;;;;16.45;9.43;;;-4.80;99.90;-6.20;99732;;;;568005;245;35426;-74
2021/12/09 06:02:16;;;;;;;13.80;6.90;;;-4.80;99.90;-6.10;99730;;;;575423;246;24073;-75
2021/12/09 06:04:44;;;;;;;19.73;11.50;;;-4.70;99.90;-6.10;99736;;;;579423;246;24103;-76
2021/12/09 06:07:12;;;;;;;18.37;11.67;;;-4.70;99.90;-6.00;99752;;;;574915;246;24081;-75
2021/12/09 06:09:40;;;;;;;14.43;10.10;;;-4.60;99.90;-5.90;99759;;;;583494;246;24108;-78
2021/12/09 06:12:08;;;;;;;17.83;11.87;;;-4.60;99.90;-5.90;99752;;;;574716;246;24127;-78
2021/12/09 06:14:36;;;;;;;21.43;11.77;;;-4.50;99.90;-5.90;99746;;;;574730;246;24119;-78
2021/12/09 06:17:07;;;;;;;24.53;13.63;;;-4.50;99.90;-5.90;99753;;;;574314;246;24126;-78
2021/12/09 06:19:32;;;;;;;18.43;11.67;;;-4.50;99.90;-5.80;99747;;;;579071;246;24107;-77
2021/12/09 06:22:01;;;;;;;21.00;11.83;;;-4.50;99.90;-5.90;99761;;;;574354;246;24083;-75
2021/12/09 06:24:29;;;;;;;17.30;10.60;;;-4.50;99.90;-5.90;99753;;;;574387;246;24108;-75
2021/12/09 06:26:58;;;;;;;18.80;11.83;;;-4.50;99.90;-5.80;99743;;;;583157;246;24135;-76
2021/12/09 06:29:25;;;;;;;21.57;13.23;;;-4.50;99.90;-5.90;99744;;;;574641;246;24085;-74
2021/12/09 06:31:53;;;;;;;18.00;11.13;;;-4.50;99.90;-5.90;99740;;;;574474;246;24062;-75
2021/12/09 06:34:21;;;;;;;20.30;12.33;;;-4.50;99.90;-5.80;99725;;;;574558;246;24100;-75
2021/12/09 06:36:49;;;;;;;20.63;12.03;;;-4.50;99.90;-5.80;99726;;;;574415;246;24142;-74
2021/12/09 06:39:17;;;;;;;20.30;12.00;;;-4.60;99.90;-5.90;99733;;;;574483;246;24165;-74
2021/12/09 06:41:46;;;;;;;18.93;11.47;;;-4.60;99.90;-6.00;99718;;;;574490;246;25157;-74
2021/12/09 06:44:15;;;;;;;22.23;11.63;;;-4.60;99.90;-6.00;99716;;;;574431;246;24100;-74
2021/12/09 06:46:43;;;;;;;20.57;12.27;;;-4.70;99.90;-6.00;99726;;;;574454;246;25158;-75
2021/12/09 06:49:11;;;;;;;21.23;12.20;;;-4.70;99.90;-6.00;99715;;;;574534;246;24097;-75
2021/12/09 06:51:39;;;;;;;20.87;11.73;;;-4.70;99.90;-6.10;99728;;;;574559;246;25138;-75
2021/12/09 06:54:07;;;;;;;21.27;12.23;;;-4.70;99.90;-6.10;99725;;;;579239;246;24143;-75
2021/12/09 06:56:35;;;;;;;20.73;13.03;;;-4.70;99.90;-6.00;99726;;;;574607;246;25139;-75
2021/12/09 06:59:03;;;;;;;24.50;13.30;;;-4.70;99.90;-6.10;99729;;;;574522;246;24130;-76
2021/12/09 07:01:31;;;;;;;20.53;11.93;;;-4.70;99.90;-6.00;99728;;;;574517;246;24149;-75
2021/12/09 07:03:59;;;;;;;20.43;11.60;;;-4.70;99.90;-6.10;99730;;;;574505;246;24154;-75
2021/12/09 07:06:27;;;;;;;23.50;13.67;;;-4.70;99.90;-6.10;99719;;;;574555;246;25140;-77
2021/12/09 07:08:59;;;;;;;24.57;12.17;;;-4.80;99.90;-6.20;99739;;;;575060;245;24084;-76
2021/12/09 07:11:22;;;;;;;19.30;13.17;;;-4.80;99.90;-6.10;99736;;;;575661;245;24144;-75
2021/12/09 07:13:53;;;;;;;28.27;15.47;;;-4.80;99.90;-6.20;99740;;;;575439;246;24097;-76
2021/12/09 07:16:18;;;;;;;26.35;15.50;;;-4.80;99.90;-6.20;99754;;;;570105;246;35324;-75
2021/12/09 07:18:46;;;;;;;19.07;11.60;;;-4.80;99.90;-6.10;99751;;;;575118;246;24081;-78
2021/12/09 07:21:18;;;;;;;18.07;12.57;;;-4.80;99.90;-6.20;99751;;;;575050;246;24081;-76
2021/12/09 07:23:42;;;;;;;18.33;11.47;;;-4.80;99.90;-6.20;99745;;;;574889;246;24077;-77
2021/12/09 07:26:10;;;;;;;17.47;12.43;;;-4.80;99.90;-6.10;99748;;;;574075;247;24164;-76
2021/12/09 07:28:38;;;;;;;20.03;13.33;;;-4.80;99.90;-6.10;99741;;;;571264;251;24127;-76
2021/12/09 07:31:06;;;;;;;23.90;12.77;;;-4.70;99.90;-6.00;99740;;;;562736;251;24127;-77
2021/12/09 07:33:36;;;;;;;21.07;12.40;;;-4.70;99.90;-6.10;99741;;;;562614;251;24144;-78
2021/12/09 07:36:02;;;;;;;19.50;13.07;;;-4.70;99.90;-6.10;99736;;;;573782;248;24138;-79
2021/12/09 07:38:29;;;;;;;20.57;12.90;;;-4.70;99.90;-6.10;99736;;;;558613;253;24150;-76
2021/12/09 07:40:57;;;;;;;19.57;13.33;;;-4.70;99.90;-6.10;99737;;;;558770;253;24117;-75
2021/12/09 07:43:25;;;;;;;21.83;13.80;;;-4.70;99.90;-6.00;99722;;;;558741;253;24155;-79
2021/12/09 07:45:53;;;;;;;21.43;13.33;;;-4.70;99.90;-6.00;99714;;;;558383;253;24168;-81
2021/12/09 07:48:21;;;;;;;19.83;12.93;;;-4.60;99.90;-6.00;99716;;;;558494;253;24103;-79
2021/12/09 07:50:49;;;;;;;22.60;14.20;;;-4.60;99.90;-5.90;99716;;;;558399;253;24146;-78
2021/12/09 07:53:17;;;;;;;24.40;13.73;;;-4.60;99.90;-5.90;99708;;;;565220;250;24137;-77
2021/12/09 07:55:46;;;;;;;21.40;12.50;;;-4.50;99.90;-5.70;99710;;;;583379;246;24153;-75
2021/12/09 07:58:14;;;;;;;18.63;12.20;;;-4.40;99.90;-5.70;99711;;;;567095;249;24099;-75
2021/12/09 08:00:46;;;;;;;19.40;12.77;;;-4.40;99.90;-5.80;99717;;;;567074;249;24090;-76
2021/12/09 08:03:12;;;;;;;20.93;13.40;;;-4.50;99.90;-5.90;99719;;;;575192;249;24118;-76
2021/12/09 08:05:40;;;;;;;21.97;13.40;;;-4.50;99.90;-6.00;99723;;;;559478;249;35403;-78
2021/12/09 08:08:10;;;;;;;18.67;12.50;;;-4.60;99.90;-6.00;99735;;;;566975;249;24118;-80
2021/12/09 08:10:35;;;;;;;21.50;13.40;;;-4.60;99.90;-6.00;99729;;;;564236;249;24082;-80
2021/12/09 08:13:03;;;;;;;18.03;13.83;;;-4.70;99.90;-6.00;99718;;;;567373;249;25123;-78
2021/12/09 08:15:37;;;;;;;19.10;13.13;;;-4.70;99.90;-5.90;99732;;;;574924;246;24060;-79
2021/12/09 08:18:14;;;;;;;22.90;15.13;;;-4.60;99.90;-5.80;99727;;;;563123;249;24123;-79
2021/12/09 08:20:30;;;;;;;20.80;13.73;;;-4.50;99.90;-5.70;99726;;;;564413;248;24172;-78
2021/12/09 08:22:58;;;;;;;19.43;12.87;;;-4.40;99.90;-5.60;99725;;;;568345;247;24147;-75
2021/12/09 08:25:26;;;;;;;19.43;12.43;;;-4.30;99.90;-5.50;99706;;;;565512;249;24100;-79
2021/12/09 08:27:54;;;;;;;19.17;12.10;;;-4.20;99.90;-5.40;99717;;;;568124;248;24099;-80
2021/12/09 08:30:22;;;;;;;19.57;12.83;;;-4.10;99.90;-5.40;99712;;;;567131;249;24112;-79
2021/12/09 08:32:51;;;;;;;23.77;13.63;;;-4.10;99.90;-5.40;99709;;;;567390;249;24107;-78
2021/12/09 08:35:19;;;;;;;20.77;14.07;;;-4.10;99.90;-5.40;99713;;;;567598;249;24170;-77
2021/12/09 08:37:48;;;;;;;24.70;13.13;;;-4.10;99.90;-5.30;99716;;;;564981;249;24099;-76
2021/12/09 08:40:17;;;;;;;17.20;12.33;;;-4.00;99.90;-5.30;99701;;;;564820;249;25186;-75
2021/12/09 08:42:49;;;;;;;16.53;11.83;;;-4.00;99.90;-5.40;99701;;;;567636;249;24088;-76
2021/12/09 08:45:13;;;;;;;20.50;12.70;;;-4.10;99.90;-5.40;99705;;;;567233;249;24163;-76
2021/12/09 08:47:41;;;;;;;17.57;12.57;;;-4.10;99.90;-5.40;99701;;;;567399;249;24149;-75
2021/12/09 08:50:09;;;;;;;18.67;13.23;;;-4.10;99.90;-5.40;99704;;;;567185;249;24148;-75
2021/12/09 08:52:37;;;;;;;18.73;12.73;;;-4.10;99.90;-5.40;99715;;;;564608;244;24178;-77
2021/12/09 08:55:05;;;;;;;18.77;14.00;;;-4.10;99.90;-5.40;99703;;;;564602;250;25139;-75
2021/12/09 08:57:36;;;;;;;23.60;13.87;;;-4.10;99.90;-5.40;99701;;;;567083;249;24111;-75
2021/12/09 09:00:01;;;;;;;22.40;14.47;;;-4.10;99.90;-5.30;99691;;;;571269;249;24106;-77
2021/12/09 09:02:29;;;;;;;19.87;13.23;;;-4.00;99.90;-5.20;99692;;;;567380;249;24119;-75
2021/12/09 09:04:57;;;;;;;24.20;13.17;;;-3.90;99.90;-5.10;99695;;;;567079;249;24083;-75
2021/12/09 09:07:28;;;;;;;16.25;10.05;;;-3.80;99.90;-5.10;99687;;;;561991;249;46288;-75
2021/12/09 09:09:52;;;;;;;11.37;6.23;;;-3.80;99.90;-5.00;99679;;;;564140;249;24130;-75
2021/12/09 09:12:20;;;;;;;18.97;10.13;;;-3.70;99.90;-4.80;99672;;;;567404;249;24092;-75
2021/12/09 09:14:48;;;;;;;24.57;14.33;;;-3.60;99.90;-4.70;99662;;;;567413;249;24121;-75
2021/12/09 09:17:16;;;;;;;20.23;13.13;;;-3.40;99.90;-4.60;99664;;;;564600;249;24138;-77
2021/12/09 09:19:45;;;;;;;25.43;15.23;;;-3.30;99.90;-4.50;99677;;;;567403;249;24092;-76
2021/12/09 09:22:13;;;;;;;19.60;14.10;;;-3.10;99.90;-4.40;99680;;;;565892;249;24108;-75
2021/12/09 09:24:44;;;;;;;18.97;13.37;;;-3.00;99.90;-4.30;99677;;;;580045;246;24031;-77
2021/12/09 09:27:10;;;;;;;22.60;13.43;;;-3.00;99.90;-4.30;99681;;;;579267;246;24022;-76
2021/12/09 09:29:42;;;;;;;19.63;13.20;;;-3.00;99.90;-4.30;99685;;;;570908;248;23972;-74
2021/12/09 09:32:10;;;;;;;22.97;14.07;;;-3.00;99.90;-4.40;99689;;;;571111;247;24017;-75
2021/12/09 09:34:35;;;;;;;23.83;14.03;;;-3.00;99.90;-4.30;99675;;;;569176;247;24017;-77
2021/12/09 09:37:04;;;;;;;21.77;13.40;;;-3.00;99.90;-4.30;99679;;;;580524;247;24046;-76
2021/12/09 09:39:32;;;;;;;19.90;13.70;;;-3.00;99.90;-4.20;99668;;;;571628;247;24056;-75
2021/12/09 09:42:58;;;;;;;21.10;13.97;;;-3.00;99.90;-4.20;99669;;;;580141;245;24004;-76
2021/12/09 09:44:33;;;;;;;21.70;13.63;;;-2.80;99.90;-4.10;99675;;;;571506;247;24006;-75
2021/12/09 09:46:59;;;;;;;19.67;12.77;;;-2.90;99.90;-4.10;99665;;;;571361;247;25039;-74
2021/12/09 09:49:29;;;;;;;20.03;13.00;;;-2.90;99.90;-4.10;99664;;;;580089;247;24021;-77
2021/12/09 09:51:54;;;;;;;21.00;12.47;;;-2.90;99.90;-4.10;99664;;;;571834;250;24114;-74
2021/12/09 09:54:22;;;;;;;26.97;13.13;;;-2.80;99.90;-4.20;99668;;;;569554;250;24243;-75
2021/12/09 09:56:54;;;;;;;22.67;14.37;;;-2.90;99.90;-4.30;99672;;;;572366;251;24136;-78
2021/12/09 09:59:21;;;;;;;22.50;14.60;;;-3.00;99.90;-4.30;99680;;;;563888;251;24140;-77
2021/12/09 10:01:46;;;;;;;22.07;14.80;;;-3.00;99.90;-4.30;99680;;;;563568;251;24164;-76
2021/12/09 10:04:21;;;;;;;19.83;14.63;;;-3.00;99.90;-4.30;99677;;;;569557;251;24157;-79
2021/12/09 10:06:42;;;;;;;21.83;14.83;;;-3.00;99.90;-4.20;99671;;;;571763;251;24121;-78
2021/12/09 10:09:10;;;;;;;21.37;13.63;;;-3.00;99.90;-4.30;99678;;;;563055;251;24171;-79
2021/12/09 10:11:41;;;;;;;19.87;13.57;;;-3.00;99.90;-4.30;99678;;;;571456;251;24390;-80
2021/12/09 10:14:09;;;;;;;20.57;13.73;;;-3.00;99.90;-4.30;99672;;;;562831;251;24153;-78
2021/12/09 10:16:38;;;;;;;26.17;15.53;;;-3.00;99.90;-4.30;99668;;;;568777;251;24125;-74
2021/12/09 10:19:05;;;;;;;21.37;13.93;;;-2.90;99.90;-4.20;99660;;;;571658;249;24197;-78
2021/12/09 10:21:34;;;;;;;19.33;13.87;;;-2.90;99.90;-4.10;99665;;;;568540;251;24121;-78
2021/12/09 10:24:05;;;;;;;27.07;15.90;;;-2.90;99.90;-4.10;99657;;;;571471;251;24130;-79
2021/12/09 10:26:33;;;;;;;21.63;14.90;;;-2.90;99.90;-4.00;99670;;;;563099;251;24127;-80
2021/12/09 10:29:25;;;;;;;23.63;14.63;;;-2.80;99.90;-3.90;99668;;;;562522;251;24172;-80
2021/12/09 10:31:58;;;;;;;24.77;16.37;;;-2.60;99.90;-3.90;99670;;;;567731;251;24129;-76
2021/12/09 10:34:41;;;;;;;24.57;15.93;;;-2.60;99.90;-3.80;99679;;;;569023;251;24179;-77
2021/12/09 10:37:22;;;;;;;23.13;16.07;;;-2.60;99.90;-3.80;99655;;;;563555;251;24128;-76
2021/12/09 10:39:58;;;;;;;22.97;15.73;;;-2.60;99.90;-3.90;99661;;;;563567;251;24132;-76
2021/12/09 10:42:26;;;;;;;29.53;17.57;;;-2.70;99.90;-3.90;99661;;;;563501;251;24154;-78
2021/12/09 10:45:00;;;;;;;26.93;17.63;;;-2.60;99.90;-3.90;99663;;;;570321;250;24128;-78
2021/12/09 10:50:27;;;;;;;21.00;15.37;;;-2.70;99.90;-3.90;99647;;;;572613;250;26265;-77
2021/12/09 10:52:51;;;;;;;25.13;16.77;;;-2.70;99.90;-4.00;99650;;;;563967;250;24102;-78
2021/12/09 10:55:21;;;;;;;24.83;16.13;;;-2.80;99.90;-4.00;99646;;;;569364;250;24132;-76
2021/12/09 10:57:54;;;;;;;22.07;15.30;;;-2.80;99.90;-4.10;99643;;;;563491;250;24137;-78
2021/12/09 11:00:28;;;;;;;25.43;16.23;;;-2.80;99.90;-4.10;99653;;;;563213;250;24129;-78
2021/12/09 11:03:02;;;;;;;25.90;15.70;;;-2.80;99.90;-4.10;99643;;;;563120;251;24118;-79
2021/12/09 11:05:31;;;;;;;22.13;15.00;;;-2.80;99.90;-4.00;99640;;;;567933;251;24118;-78
2021/12/09 11:08:16;;;;;;;24.63;16.37;;;-2.80;99.90;-4.00;99627;;;;571722;251;24190;-77
2021/12/09 11:10:48;;;;;;;23.40;16.33;;;-2.80;99.90;-4.10;99615;;;;571715;251;24106;-77